sensor_id;sensor_type;location;lat;lon;timestamp;P1;durP1;ratioP1;P2;durP2;ratioP2
67074;SDS011;53990;50.334;18.640;2023-04-12T00:01:41;8.30;;;4.50;;
67074;SDS011;53990;50.334;18.640;2023-04-12T00:04:08;9.30;;;5.50;;
67074;SDS011;53990;50.334;18.640;2023-04-12T00:06:35;9.80;;;5.60;;
67074;SDS011;53990;50.334;18.640;2023-04-12T00:09:02;8.80;;;4.80;;
67074;SDS011;53990;50.334;18.640;2023-04-12T00:11:30;8.00;;;5.10;;
67074;SDS011;53990;50.334;18.640;2023-04-12T00:13:57;9.40;;;4.80;;
67074;SDS011;53990;50.334;18.640;2023-04-12T00:16:23;9.40;;;5.10;;
67074;SDS011;53990;50.334;18.640;2023-04-12T00:18:50;8.40;;;5.00;;
67074;SDS011;53990;50.334;18.640;2023-04-12T00:21:17;8.20;;;4.60;;
67074;SDS011;53990;50.334;18.640;2023-04-12T00:23:45;9.70;;;5.30;;
67074;SDS011;53990;50.334;18.640;2023-04-12T00:26:12;8.40;;;4.90;;
67074;SDS011;53990;50.334;18.640;2023-04-12T00:28:40;9.20;;;5.10;;
67074;SDS011;53990;50.334;18.640;2023-04-12T00:31:08;10.30;;;5.10;;
67074;SDS011;53990;50.334;18.640;2023-04-12T00:33:34;9.00;;;4.80;;
67074;SDS011;53990;50.334;18.640;2023-04-12T00:36:02;7.90;;;5.50;;
67074;SDS011;53990;50.334;18.640;2023-04-12T00:38:29;8.90;;;4.90;;
67074;SDS011;53990;50.334;18.640;2023-04-12T00:40:56;8.00;;;4.60;;
67074;SDS011;53990;50.334;18.640;2023-04-12T00:43:23;8.50;;;4.50;;
67074;SDS011;53990;50.334;18.640;2023-04-12T00:45:53;10.40;;;4.70;;
67074;SDS011;53990;50.334;18.640;2023-04-12T00:48:23;12.70;;;6.30;;
67074;SDS011;53990;50.334;18.640;2023-04-12T00:50:50;9.40;;;4.80;;
67074;SDS011;53990;50.334;18.640;2023-04-12T00:53:21;7.80;;;4.90;;
67074;SDS011;53990;50.334;18.640;2023-04-12T00:55:50;8.70;;;4.80;;
67074;SDS011;53990;50.334;18.640;2023-04-12T00:58:18;11.00;;;5.80;;
67074;SDS011;53990;50.334;18.640;2023-04-12T01:00:44;9.80;;;5.20;;
67074;SDS011;53990;50.334;18.640;2023-04-12T01:03:16;9.30;;;5.30;;
67074;SDS011;53990;50.334;18.640;2023-04-12T01:08:35;9.00;;;5.00;;
67074;SDS011;53990;50.334;18.640;2023-04-12T01:14:07;9.30;;;4.80;;
67074;SDS011;53990;50.334;18.640;2023-04-12T01:16:56;7.30;;;4.40;;
67074;SDS011;53990;50.334;18.640;2023-04-12T01:19:51;10.00;;;5.50;;
67074;SDS011;53990;50.334;18.640;2023-04-12T01:22:28;13.50;;;6.20;;
67074;SDS011;53990;50.334;18.640;2023-04-12T01:28:02;9.50;;;6.10;;
67074;SDS011;53990;50.334;18.640;2023-04-12T01:30:30;8.90;;;4.80;;
67074;SDS011;53990;50.334;18.640;2023-04-12T01:33:00;9.40;;;5.00;;
67074;SDS011;53990;50.334;18.640;2023-04-12T01:35:30;11.20;;;5.60;;
67074;SDS011;53990;50.334;18.640;2023-04-12T01:37:58;10.80;;;6.30;;
67074;SDS011;53990;50.334;18.640;2023-04-12T01:40:27;8.30;;;5.30;;
67074;SDS011;53990;50.334;18.640;2023-04-12T01:43:04;12.30;;;5.60;;
67074;SDS011;53990;50.334;18.640;2023-04-12T01:45:31;10.60;;;5.90;;
67074;SDS011;53990;50.334;18.640;2023-04-12T01:47:59;10.60;;;5.80;;
67074;SDS011;53990;50.334;18.640;2023-04-12T01:50:35;12.10;;;5.60;;
67074;SDS011;53990;50.334;18.640;2023-04-12T01:53:11;9.10;;;5.40;;
67074;SDS011;53990;50.334;18.640;2023-04-12T01:55:40;10.20;;;5.60;;
67074;SDS011;53990;50.334;18.640;2023-04-12T01:58:11;10.30;;;5.30;;
67074;SDS011;53990;50.334;18.640;2023-04-12T02:00:39;11.60;;;5.90;;
67074;SDS011;53990;50.334;18.640;2023-04-12T02:03:08;10.60;;;5.30;;
67074;SDS011;53990;50.334;18.640;2023-04-12T02:05:35;9.30;;;5.50;;
67074;SDS011;53990;50.334;18.640;2023-04-12T02:08:02;10.40;;;5.60;;
67074;SDS011;53990;50.334;18.640;2023-04-12T02:10:31;9.80;;;5.70;;
67074;SDS011;53990;50.334;18.640;2023-04-12T02:12:59;8.90;;;5.40;;
67074;SDS011;53990;50.334;18.640;2023-04-12T02:15:27;9.70;;;5.20;;
67074;SDS011;53990;50.334;18.640;2023-04-12T02:17:54;8.90;;;5.40;;
67074;SDS011;53990;50.334;18.640;2023-04-12T02:20:22;10.30;;;5.20;;
67074;SDS011;53990;50.334;18.640;2023-04-12T02:22:52;8.40;;;5.20;;
67074;SDS011;53990;50.334;18.640;2023-04-12T02:25:19;9.10;;;5.20;;
67074;SDS011;53990;50.334;18.640;2023-04-12T02:27:46;8.90;;;5.00;;
67074;SDS011;53990;50.334;18.640;2023-04-12T02:30:14;9.80;;;5.40;;
67074;SDS011;53990;50.334;18.640;2023-04-12T02:32:41;11.60;;;5.30;;
67074;SDS011;53990;50.334;18.640;2023-04-12T02:35:12;10.50;;;5.50;;
67074;SDS011;53990;50.334;18.640;2023-04-12T02:37:39;8.90;;;5.70;;
67074;SDS011;53990;50.334;18.640;2023-04-12T02:40:07;10.30;;;5.10;;
67074;SDS011;53990;50.334;18.640;2023-04-12T02:42:50;7.50;;;5.40;;
67074;SDS011;53990;50.334;18.640;2023-04-12T02:45:20;12.50;;;5.90;;
67074;SDS011;53990;50.334;18.640;2023-04-12T02:47:47;8.20;;;4.80;;
67074;SDS011;53990;50.334;18.640;2023-04-12T02:50:13;9.00;;;5.10;;
67074;SDS011;53990;50.334;18.640;2023-04-12T02:52:48;9.00;;;5.10;;
67074;SDS011;53990;50.334;18.640;2023-04-12T02:55:19;9.40;;;5.40;;
67074;SDS011;53990;50.334;18.640;2023-04-12T02:57:46;9.70;;;5.10;;
67074;SDS011;53990;50.334;18.640;2023-04-12T03:00:14;13.90;;;5.20;;
67074;SDS011;53990;50.334;18.640;2023-04-12T03:02:42;8.90;;;5.50;;
67074;SDS011;53990;50.334;18.640;2023-04-12T03:09:01;10.90;;;5.50;;
67074;SDS011;53990;50.334;18.640;2023-04-12T03:11:28;11.40;;;5.30;;
67074;SDS011;53990;50.334;18.640;2023-04-12T03:13:54;12.90;;;6.20;;
67074;SDS011;53990;50.334;18.640;2023-04-12T03:16:25;14.20;;;6.30;;
67074;SDS011;53990;50.334;18.640;2023-04-12T03:18:55;10.70;;;6.00;;
67074;SDS011;53990;50.334;18.640;2023-04-12T03:21:22;10.00;;;5.70;;
67074;SDS011;53990;50.334;18.640;2023-04-12T03:23:48;12.00;;;6.50;;
67074;SDS011;53990;50.334;18.640;2023-04-12T03:26:15;8.90;;;5.30;;
67074;SDS011;53990;50.334;18.640;2023-04-12T03:28:46;8.40;;;5.20;;
67074;SDS011;53990;50.334;18.640;2023-04-12T03:31:13;12.10;;;6.30;;
67074;SDS011;53990;50.334;18.640;2023-04-12T03:33:40;12.10;;;7.00;;
67074;SDS011;53990;50.334;18.640;2023-04-12T03:36:07;13.70;;;6.50;;
67074;SDS011;53990;50.334;18.640;2023-04-12T03:38:35;10.40;;;5.80;;
67074;SDS011;53990;50.334;18.640;2023-04-12T03:41:02;8.50;;;5.90;;
67074;SDS011;53990;50.334;18.640;2023-04-12T03:43:29;10.70;;;6.30;;
67074;SDS011;53990;50.334;18.640;2023-04-12T03:46:04;10.50;;;5.80;;
67074;SDS011;53990;50.334;18.640;2023-04-12T03:48:31;12.90;;;6.20;;
67074;SDS011;53990;50.334;18.640;2023-04-12T03:50:58;12.90;;;7.10;;
67074;SDS011;53990;50.334;18.640;2023-04-12T03:53:33;13.40;;;7.60;;
67074;SDS011;53990;50.334;18.640;2023-04-12T03:56:00;11.30;;;6.70;;
67074;SDS011;53990;50.334;18.640;2023-04-12T03:58:27;18.00;;;10.40;;
67074;SDS011;53990;50.334;18.640;2023-04-12T04:00:54;29.00;;;15.20;;
67074;SDS011;53990;50.334;18.640;2023-04-12T04:03:21;22.20;;;11.90;;
67074;SDS011;53990;50.334;18.640;2023-04-12T04:05:52;52.50;;;22.10;;
67074;SDS011;53990;50.334;18.640;2023-04-12T04:08:19;39.00;;;15.40;;
67074;SDS011;53990;50.334;18.640;2023-04-12T04:10:46;37.40;;;16.90;;
67074;SDS011;53990;50.334;18.640;2023-04-12T04:13:12;39.40;;;18.20;;
67074;SDS011;53990;50.334;18.640;2023-04-12T04:15:39;47.20;;;18.80;;
67074;SDS011;53990;50.334;18.640;2023-04-12T04:18:06;32.40;;;13.40;;
67074;SDS011;53990;50.334;18.640;2023-04-12T04:20:32;51.50;;;20.60;;
67074;SDS011;53990;50.334;18.640;2023-04-12T04:22:59;49.90;;;20.50;;
67074;SDS011;53990;50.334;18.640;2023-04-12T04:25:26;67.30;;;24.60;;
67074;SDS011;53990;50.334;18.640;2023-04-12T04:27:55;73.40;;;25.50;;
67074;SDS011;53990;50.334;18.640;2023-04-12T04:30:23;62.40;;;22.30;;
67074;SDS011;53990;50.334;18.640;2023-04-12T04:32:50;17.20;;;8.40;;
67074;SDS011;53990;50.334;18.640;2023-04-12T04:35:17;13.90;;;8.20;;
67074;SDS011;53990;50.334;18.640;2023-04-12T04:37:44;27.50;;;10.50;;
67074;SDS011;53990;50.334;18.640;2023-04-12T04:40:10;14.70;;;7.60;;
67074;SDS011;53990;50.334;18.640;2023-04-12T04:42:37;13.60;;;8.00;;
67074;SDS011;53990;50.334;18.640;2023-04-12T04:45:05;13.00;;;6.70;;
67074;SDS011;53990;50.334;18.640;2023-04-12T04:47:39;14.80;;;7.70;;
67074;SDS011;53990;50.334;18.640;2023-04-12T04:50:06;17.00;;;8.70;;
67074;SDS011;53990;50.334;18.640;2023-04-12T04:52:33;16.40;;;7.90;;
67074;SDS011;53990;50.334;18.640;2023-04-12T04:54:59;19.40;;;9.20;;
67074;SDS011;53990;50.334;18.640;2023-04-12T04:57:26;17.80;;;9.60;;
67074;SDS011;53990;50.334;18.640;2023-04-12T04:59:56;22.40;;;11.50;;
67074;SDS011;53990;50.334;18.640;2023-04-12T05:02:23;17.30;;;10.60;;
67074;SDS011;53990;50.334;18.640;2023-04-12T05:04:49;15.90;;;8.90;;
67074;SDS011;53990;50.334;18.640;2023-04-12T05:07:16;15.60;;;9.90;;
67074;SDS011;53990;50.334;18.640;2023-04-12T05:09:43;17.30;;;8.50;;
67074;SDS011;53990;50.334;18.640;2023-04-12T05:12:10;16.70;;;8.30;;
67074;SDS011;53990;50.334;18.640;2023-04-12T05:14:37;15.50;;;8.00;;
67074;SDS011;53990;50.334;18.640;2023-04-12T05:17:05;16.70;;;8.90;;
67074;SDS011;53990;50.334;18.640;2023-04-12T05:19:32;15.40;;;8.20;;
67074;SDS011;53990;50.334;18.640;2023-04-12T05:21:58;15.20;;;8.00;;
67074;SDS011;53990;50.334;18.640;2023-04-12T05:24:25;13.90;;;8.20;;
67074;SDS011;53990;50.334;18.640;2023-04-12T05:26:52;12.50;;;7.90;;
67074;SDS011;53990;50.334;18.640;2023-04-12T05:29:19;16.50;;;10.00;;
67074;SDS011;53990;50.334;18.640;2023-04-12T05:31:46;17.80;;;10.10;;
67074;SDS011;53990;50.334;18.640;2023-04-12T05:34:12;12.30;;;7.50;;
67074;SDS011;53990;50.334;18.640;2023-04-12T05:36:39;18.50;;;10.70;;
67074;SDS011;53990;50.334;18.640;2023-04-12T05:39:06;20.40;;;10.10;;
67074;SDS011;53990;50.334;18.640;2023-04-12T05:41:33;17.90;;;11.20;;
67074;SDS011;53990;50.334;18.640;2023-04-12T05:44:00;21.60;;;12.30;;
67074;SDS011;53990;50.334;18.640;2023-04-12T05:46:28;16.30;;;10.50;;
67074;SDS011;53990;50.334;18.640;2023-04-12T05:48:55;12.80;;;8.60;;
67074;SDS011;53990;50.334;18.640;2023-04-12T05:51:22;20.40;;;10.10;;
67074;SDS011;53990;50.334;18.640;2023-04-12T05:53:49;11.70;;;8.00;;
67074;SDS011;53990;50.334;18.640;2023-04-12T05:56:15;12.90;;;8.10;;
67074;SDS011;53990;50.334;18.640;2023-04-12T05:58:42;15.20;;;8.90;;
67074;SDS011;53990;50.334;18.640;2023-04-12T06:01:09;14.50;;;7.50;;
67074;SDS011;53990;50.334;18.640;2023-04-12T06:03:36;15.70;;;8.50;;
67074;SDS011;53990;50.334;18.640;2023-04-12T06:06:07;15.70;;;8.20;;
67074;SDS011;53990;50.334;18.640;2023-04-12T06:08:34;13.90;;;8.40;;
67074;SDS011;53990;50.334;18.640;2023-04-12T06:11:01;11.40;;;7.20;;
67074;SDS011;53990;50.334;18.640;2023-04-12T06:13:28;15.00;;;7.10;;
67074;SDS011;53990;50.334;18.640;2023-04-12T06:15:55;13.00;;;7.50;;
67074;SDS011;53990;50.334;18.640;2023-04-12T06:18:21;11.70;;;7.90;;
67074;SDS011;53990;50.334;18.640;2023-04-12T06:20:48;17.10;;;8.50;;
67074;SDS011;53990;50.334;18.640;2023-04-12T06:23:15;14.90;;;8.00;;
67074;SDS011;53990;50.334;18.640;2023-04-12T06:25:43;16.80;;;8.50;;
67074;SDS011;53990;50.334;18.640;2023-04-12T06:28:10;14.90;;;8.40;;
67074;SDS011;53990;50.334;18.640;2023-04-12T06:30:37;13.80;;;8.70;;
67074;SDS011;53990;50.334;18.640;2023-04-12T06:33:03;12.30;;;7.60;;
67074;SDS011;53990;50.334;18.640;2023-04-12T06:35:30;24.70;;;12.80;;
67074;SDS011;53990;50.334;18.640;2023-04-12T06:37:57;16.10;;;9.30;;
67074;SDS011;53990;50.334;18.640;2023-04-12T06:40:23;13.40;;;8.30;;
67074;SDS011;53990;50.334;18.640;2023-04-12T06:42:50;23.70;;;13.60;;
67074;SDS011;53990;50.334;18.640;2023-04-12T06:45:17;15.60;;;10.80;;
67074;SDS011;53990;50.334;18.640;2023-04-12T06:47:44;15.90;;;8.80;;
67074;SDS011;53990;50.334;18.640;2023-04-12T06:50:12;17.00;;;9.60;;
67074;SDS011;53990;50.334;18.640;2023-04-12T06:52:39;14.70;;;8.80;;
67074;SDS011;53990;50.334;18.640;2023-04-12T06:55:06;18.00;;;11.70;;
67074;SDS011;53990;50.334;18.640;2023-04-12T06:57:33;13.40;;;9.20;;
67074;SDS011;53990;50.334;18.640;2023-04-12T07:00:00;13.20;;;7.90;;
67074;SDS011;53990;50.334;18.640;2023-04-12T07:02:27;11.40;;;7.40;;
67074;SDS011;53990;50.334;18.640;2023-04-12T07:04:54;11.60;;;7.00;;
67074;SDS011;53990;50.334;18.640;2023-04-12T07:07:21;11.40;;;7.40;;
67074;SDS011;53990;50.334;18.640;2023-04-12T07:09:47;13.10;;;7.80;;
67074;SDS011;53990;50.334;18.640;2023-04-12T07:12:14;13.00;;;7.40;;
67074;SDS011;53990;50.334;18.640;2023-04-12T07:14:41;13.00;;;7.80;;
67074;SDS011;53990;50.334;18.640;2023-04-12T07:17:08;16.30;;;8.50;;
67074;SDS011;53990;50.334;18.640;2023-04-12T07:19:35;12.30;;;7.60;;
67074;SDS011;53990;50.334;18.640;2023-04-12T07:22:02;11.60;;;7.40;;
67074;SDS011;53990;50.334;18.640;2023-04-12T07:24:29;10.30;;;6.40;;
67074;SDS011;53990;50.334;18.640;2023-04-12T07:26:55;14.80;;;7.50;;
67074;SDS011;53990;50.334;18.640;2023-04-12T07:29:22;10.90;;;7.20;;
67074;SDS011;53990;50.334;18.640;2023-04-12T07:31:49;13.00;;;7.20;;
67074;SDS011;53990;50.334;18.640;2023-04-12T07:34:16;14.20;;;8.70;;
67074;SDS011;53990;50.334;18.640;2023-04-12T07:36:42;13.60;;;7.20;;
67074;SDS011;53990;50.334;18.640;2023-04-12T07:39:10;12.50;;;7.10;;
67074;SDS011;53990;50.334;18.640;2023-04-12T07:41:41;11.20;;;7.00;;
67074;SDS011;53990;50.334;18.640;2023-04-12T07:44:08;13.40;;;7.30;;
67074;SDS011;53990;50.334;18.640;2023-04-12T07:46:35;11.80;;;6.30;;
67074;SDS011;53990;50.334;18.640;2023-04-12T07:49:02;10.60;;;6.60;;
67074;SDS011;53990;50.334;18.640;2023-04-12T07:51:29;11.30;;;7.10;;
67074;SDS011;53990;50.334;18.640;2023-04-12T07:53:56;8.50;;;6.40;;
67074;SDS011;53990;50.334;18.640;2023-04-12T07:56:23;11.60;;;7.10;;
67074;SDS011;53990;50.334;18.640;2023-04-12T07:58:50;8.90;;;6.10;;
67074;SDS011;53990;50.334;18.640;2023-04-12T08:01:16;7.50;;;5.80;;
67074;SDS011;53990;50.334;18.640;2023-04-12T08:03:43;11.60;;;7.00;;
67074;SDS011;53990;50.334;18.640;2023-04-12T08:06:10;11.50;;;6.20;;
67074;SDS011;53990;50.334;18.640;2023-04-12T08:08:37;12.60;;;7.00;;
67074;SDS011;53990;50.334;18.640;2023-04-12T08:11:04;13.40;;;9.60;;
67074;SDS011;53990;50.334;18.640;2023-04-12T08:13:33;9.70;;;7.30;;
67074;SDS011;53990;50.334;18.640;2023-04-12T08:16:00;12.10;;;6.80;;
67074;SDS011;53990;50.334;18.640;2023-04-12T08:18:27;9.10;;;6.50;;
67074;SDS011;53990;50.334;18.640;2023-04-12T08:20:56;9.70;;;6.20;;
67074;SDS011;53990;50.334;18.640;2023-04-12T08:23:24;9.00;;;5.90;;
67074;SDS011;53990;50.334;18.640;2023-04-12T08:25:51;8.50;;;6.10;;
67074;SDS011;53990;50.334;18.640;2023-04-12T08:28:29;12.80;;;6.00;;
67074;SDS011;53990;50.334;18.640;2023-04-12T08:30:56;9.00;;;6.00;;
67074;SDS011;53990;50.334;18.640;2023-04-12T08:33:23;9.00;;;5.40;;
67074;SDS011;53990;50.334;18.640;2023-04-12T08:35:50;8.90;;;6.10;;
67074;SDS011;53990;50.334;18.640;2023-04-12T08:38:18;7.90;;;5.00;;
67074;SDS011;53990;50.334;18.640;2023-04-12T08:40:45;7.90;;;4.60;;
67074;SDS011;53990;50.334;18.640;2023-04-12T08:43:13;6.80;;;4.60;;
67074;SDS011;53990;50.334;18.640;2023-04-12T08:45:40;6.60;;;4.40;;
67074;SDS011;53990;50.334;18.640;2023-04-12T08:48:08;6.90;;;5.10;;
67074;SDS011;53990;50.334;18.640;2023-04-12T08:50:35;8.70;;;4.90;;
67074;SDS011;53990;50.334;18.640;2023-04-12T08:53:02;7.10;;;5.20;;
67074;SDS011;53990;50.334;18.640;2023-04-12T08:55:29;6.40;;;4.50;;
67074;SDS011;53990;50.334;18.640;2023-04-12T08:57:56;7.90;;;5.00;;
67074;SDS011;53990;50.334;18.640;2023-04-12T09:00:24;6.90;;;4.80;;
67074;SDS011;53990;50.334;18.640;2023-04-12T09:02:51;7.00;;;4.70;;
67074;SDS011;53990;50.334;18.640;2023-04-12T09:05:18;6.40;;;4.30;;
67074;SDS011;53990;50.334;18.640;2023-04-12T09:07:45;7.30;;;4.20;;
67074;SDS011;53990;50.334;18.640;2023-04-12T09:10:29;6.60;;;4.40;;
67074;SDS011;53990;50.334;18.640;2023-04-12T09:12:57;9.70;;;6.70;;
67074;SDS011;53990;50.334;18.640;2023-04-12T09:15:24;5.70;;;3.50;;
67074;SDS011;53990;50.334;18.640;2023-04-12T09:18:05;6.40;;;3.60;;
67074;SDS011;53990;50.334;18.640;2023-04-12T09:20:33;4.40;;;3.30;;
67074;SDS011;53990;50.334;18.640;2023-04-12T09:23:00;6.50;;;3.80;;
67074;SDS011;53990;50.334;18.640;2023-04-12T09:25:35;6.20;;;4.00;;
67074;SDS011;53990;50.334;18.640;2023-04-12T09:28:04;6.90;;;4.00;;
67074;SDS011;53990;50.334;18.640;2023-04-12T09:30:40;5.40;;;3.60;;
67074;SDS011;53990;50.334;18.640;2023-04-12T09:33:11;5.00;;;3.80;;
67074;SDS011;53990;50.334;18.640;2023-04-12T09:35:41;5.50;;;4.00;;
67074;SDS011;53990;50.334;18.640;2023-04-12T09:38:09;6.60;;;3.40;;
67074;SDS011;53990;50.334;18.640;2023-04-12T09:40:36;7.60;;;5.00;;
67074;SDS011;53990;50.334;18.640;2023-04-12T09:43:04;6.50;;;3.50;;
67074;SDS011;53990;50.334;18.640;2023-04-12T09:45:36;5.80;;;4.10;;
67074;SDS011;53990;50.334;18.640;2023-04-12T09:48:06;6.30;;;3.50;;
67074;SDS011;53990;50.334;18.640;2023-04-12T09:50:33;6.20;;;3.70;;
67074;SDS011;53990;50.334;18.640;2023-04-12T09:53:02;4.90;;;3.40;;
67074;SDS011;53990;50.334;18.640;2023-04-12T09:55:30;5.40;;;3.90;;
67074;SDS011;53990;50.334;18.640;2023-04-12T09:58:01;8.80;;;4.50;;
67074;SDS011;53990;50.334;18.640;2023-04-12T10:00:30;8.30;;;5.30;;
67074;SDS011;53990;50.334;18.640;2023-04-12T10:02:59;6.50;;;3.60;;
67074;SDS011;53990;50.334;18.640;2023-04-12T10:05:27;6.10;;;3.70;;
67074;SDS011;53990;50.334;18.640;2023-04-12T10:07:54;4.80;;;3.40;;
67074;SDS011;53990;50.334;18.640;2023-04-12T10:10:22;3.80;;;2.70;;
67074;SDS011;53990;50.334;18.640;2023-04-12T10:12:49;3.90;;;2.70;;
67074;SDS011;53990;50.334;18.640;2023-04-12T10:15:16;4.20;;;2.90;;
67074;SDS011;53990;50.334;18.640;2023-04-12T10:17:50;6.90;;;4.30;;
67074;SDS011;53990;50.334;18.640;2023-04-12T10:20:18;6.10;;;3.20;;
67074;SDS011;53990;50.334;18.640;2023-04-12T10:22:49;5.80;;;3.90;;
67074;SDS011;53990;50.334;18.640;2023-04-12T10:25:21;8.80;;;4.50;;
67074;SDS011;53990;50.334;18.640;2023-04-12T10:27:48;4.20;;;2.80;;
67074;SDS011;53990;50.334;18.640;2023-04-12T10:30:26;4.90;;;3.00;;
67074;SDS011;53990;50.334;18.640;2023-04-12T10:35:30;6.60;;;4.20;;
67074;SDS011;53990;50.334;18.640;2023-04-12T10:38:14;4.50;;;2.60;;
67074;SDS011;53990;50.334;18.640;2023-04-12T10:43:27;4.20;;;2.40;;
67074;SDS011;53990;50.334;18.640;2023-04-12T10:45:54;5.30;;;2.50;;
67074;SDS011;53990;50.334;18.640;2023-04-12T10:53:43;4.20;;;2.00;;
67074;SDS011;53990;50.334;18.640;2023-04-12T10:57:03;4.70;;;2.10;;
67074;SDS011;53990;50.334;18.640;2023-04-12T11:16:13;4.60;;;1.80;;
67074;SDS011;53990;50.334;18.640;2023-04-12T11:18:40;3.50;;;1.80;;
67074;SDS011;53990;50.334;18.640;2023-04-12T11:21:12;3.60;;;1.70;;
67074;SDS011;53990;50.334;18.640;2023-04-12T11:23:41;3.40;;;1.90;;
67074;SDS011;53990;50.334;18.640;2023-04-12T11:26:08;3.40;;;1.90;;
67074;SDS011;53990;50.334;18.640;2023-04-12T11:28:36;3.60;;;1.90;;
67074;SDS011;53990;50.334;18.640;2023-04-12T11:31:05;3.30;;;1.80;;
67074;SDS011;53990;50.334;18.640;2023-04-12T11:33:34;3.10;;;1.60;;
67074;SDS011;53990;50.334;18.640;2023-04-12T11:36:04;5.10;;;1.90;;
67074;SDS011;53990;50.334;18.640;2023-04-12T11:38:34;4.30;;;1.90;;
67074;SDS011;53990;50.334;18.640;2023-04-12T11:41:02;3.80;;;2.50;;
67074;SDS011;53990;50.334;18.640;2023-04-12T11:43:35;3.80;;;2.20;;
67074;SDS011;53990;50.334;18.640;2023-04-12T11:46:04;8.10;;;3.80;;
67074;SDS011;53990;50.334;18.640;2023-04-12T11:48:32;4.00;;;2.30;;
67074;SDS011;53990;50.334;18.640;2023-04-12T11:51:00;3.80;;;2.20;;
67074;SDS011;53990;50.334;18.640;2023-04-12T11:53:27;3.10;;;2.00;;
67074;SDS011;53990;50.334;18.640;2023-04-12T11:55:56;4.20;;;1.90;;
67074;SDS011;53990;50.334;18.640;2023-04-12T11:58:27;3.70;;;2.20;;
67074;SDS011;53990;50.334;18.640;2023-04-12T12:00:55;5.00;;;2.50;;
67074;SDS011;53990;50.334;18.640;2023-04-12T12:03:26;4.20;;;2.40;;
67074;SDS011;53990;50.334;18.640;2023-04-12T12:05:53;4.20;;;2.10;;
67074;SDS011;53990;50.334;18.640;2023-04-12T12:08:21;3.40;;;2.70;;
67074;SDS011;53990;50.334;18.640;2023-04-12T12:10:50;5.50;;;3.20;;
67074;SDS011;53990;50.334;18.640;2023-04-12T12:13:17;6.00;;;3.10;;
67074;SDS011;53990;50.334;18.640;2023-04-12T12:15:45;5.90;;;3.00;;
67074;SDS011;53990;50.334;18.640;2023-04-12T12:18:12;4.90;;;2.60;;
67074;SDS011;53990;50.334;18.640;2023-04-12T12:20:49;4.60;;;2.80;;
67074;SDS011;53990;50.334;18.640;2023-04-12T12:23:30;5.70;;;2.90;;
67074;SDS011;53990;50.334;18.640;2023-04-12T12:25:59;3.60;;;2.20;;
67074;SDS011;53990;50.334;18.640;2023-04-12T12:28:26;3.20;;;2.20;;
67074;SDS011;53990;50.334;18.640;2023-04-12T12:30:54;3.30;;;2.60;;
67074;SDS011;53990;50.334;18.640;2023-04-12T12:33:23;3.60;;;2.30;;
67074;SDS011;53990;50.334;18.640;2023-04-12T12:35:58;5.40;;;2.20;;
67074;SDS011;53990;50.334;18.640;2023-04-12T12:38:36;4.70;;;2.80;;
67074;SDS011;53990;50.334;18.640;2023-04-12T12:41:20;3.90;;;2.20;;
67074;SDS011;53990;50.334;18.640;2023-04-12T12:43:50;3.80;;;2.10;;
67074;SDS011;53990;50.334;18.640;2023-04-12T12:46:18;5.70;;;2.90;;
67074;SDS011;53990;50.334;18.640;2023-04-12T12:48:47;4.40;;;2.50;;
67074;SDS011;53990;50.334;18.640;2023-04-12T12:51:15;13.20;;;7.10;;
67074;SDS011;53990;50.334;18.640;2023-04-12T12:53:46;6.80;;;4.50;;
67074;SDS011;53990;50.334;18.640;2023-04-12T12:56:14;5.20;;;3.90;;
67074;SDS011;53990;50.334;18.640;2023-04-12T12:58:41;8.30;;;4.50;;
67074;SDS011;53990;50.334;18.640;2023-04-12T13:01:09;6.90;;;4.10;;
67074;SDS011;53990;50.334;18.640;2023-04-12T13:03:37;6.50;;;3.70;;
67074;SDS011;53990;50.334;18.640;2023-04-12T13:06:06;6.60;;;4.00;;
67074;SDS011;53990;50.334;18.640;2023-04-12T13:08:33;8.30;;;5.10;;
67074;SDS011;53990;50.334;18.640;2023-04-12T13:11:03;8.10;;;4.60;;
67074;SDS011;53990;50.334;18.640;2023-04-12T13:13:31;7.30;;;3.50;;
67074;SDS011;53990;50.334;18.640;2023-04-12T13:15:58;4.30;;;2.90;;
67074;SDS011;53990;50.334;18.640;2023-04-12T13:18:25;5.90;;;3.40;;
67074;SDS011;53990;50.334;18.640;2023-04-12T13:20:52;6.70;;;3.50;;
67074;SDS011;53990;50.334;18.640;2023-04-12T13:23:20;5.60;;;3.60;;
67074;SDS011;53990;50.334;18.640;2023-04-12T13:25:47;4.30;;;3.30;;
67074;SDS011;53990;50.334;18.640;2023-04-12T13:28:14;4.70;;;3.30;;
67074;SDS011;53990;50.334;18.640;2023-04-12T13:30:43;5.40;;;3.50;;
67074;SDS011;53990;50.334;18.640;2023-04-12T13:33:10;6.00;;;3.50;;
67074;SDS011;53990;50.334;18.640;2023-04-12T13:35:37;5.70;;;3.70;;
67074;SDS011;53990;50.334;18.640;2023-04-12T13:38:04;5.60;;;3.40;;
67074;SDS011;53990;50.334;18.640;2023-04-12T13:40:32;5.40;;;4.10;;
67074;SDS011;53990;50.334;18.640;2023-04-12T13:42:59;8.30;;;4.10;;
67074;SDS011;53990;50.334;18.640;2023-04-12T13:45:26;5.40;;;3.30;;
67074;SDS011;53990;50.334;18.640;2023-04-12T13:47:55;4.20;;;2.50;;
67074;SDS011;53990;50.334;18.640;2023-04-12T13:50:22;3.80;;;2.50;;
67074;SDS011;53990;50.334;18.640;2023-04-12T13:52:49;3.40;;;2.10;;
67074;SDS011;53990;50.334;18.640;2023-04-12T13:55:17;4.60;;;2.20;;
67074;SDS011;53990;50.334;18.640;2023-04-12T13:57:44;3.40;;;2.00;;
67074;SDS011;53990;50.334;18.640;2023-04-12T14:00:11;4.30;;;1.80;;
67074;SDS011;53990;50.334;18.640;2023-04-12T14:02:38;3.40;;;1.90;;
67074;SDS011;53990;50.334;18.640;2023-04-12T14:05:06;3.40;;;1.90;;
67074;SDS011;53990;50.334;18.640;2023-04-12T14:07:34;3.00;;;1.80;;
67074;SDS011;53990;50.334;18.640;2023-04-12T14:10:01;2.70;;;1.40;;
67074;SDS011;53990;50.334;18.640;2023-04-12T14:12:29;2.90;;;1.60;;
67074;SDS011;53990;50.334;18.640;2023-04-12T14:14:56;2.70;;;1.70;;
67074;SDS011;53990;50.334;18.640;2023-04-12T14:17:23;2.60;;;1.60;;
67074;SDS011;53990;50.334;18.640;2023-04-12T14:19:51;4.40;;;2.30;;
67074;SDS011;53990;50.334;18.640;2023-04-12T14:22:19;3.40;;;1.60;;
67074;SDS011;53990;50.334;18.640;2023-04-12T14:24:46;3.10;;;2.00;;
67074;SDS011;53990;50.334;18.640;2023-04-12T14:27:13;4.10;;;2.00;;
67074;SDS011;53990;50.334;18.640;2023-04-12T14:29:41;3.00;;;1.80;;
67074;SDS011;53990;50.334;18.640;2023-04-12T14:32:09;3.10;;;1.90;;
67074;SDS011;53990;50.334;18.640;2023-04-12T14:34:36;3.60;;;1.90;;
67074;SDS011;53990;50.334;18.640;2023-04-12T14:37:04;3.30;;;1.90;;
67074;SDS011;53990;50.334;18.640;2023-04-12T14:39:31;3.70;;;2.00;;
67074;SDS011;53990;50.334;18.640;2023-04-12T14:41:59;4.80;;;2.10;;
67074;SDS011;53990;50.334;18.640;2023-04-12T14:44:27;3.80;;;2.20;;
67074;SDS011;53990;50.334;18.640;2023-04-12T14:46:54;4.80;;;2.30;;
67074;SDS011;53990;50.334;18.640;2023-04-12T14:49:22;4.30;;;2.20;;
67074;SDS011;53990;50.334;18.640;2023-04-12T14:51:49;4.20;;;2.00;;
67074;SDS011;53990;50.334;18.640;2023-04-12T14:54:16;3.90;;;2.40;;
67074;SDS011;53990;50.334;18.640;2023-04-12T14:56:44;3.90;;;2.20;;
67074;SDS011;53990;50.334;18.640;2023-04-12T14:59:13;3.10;;;1.80;;
67074;SDS011;53990;50.334;18.640;2023-04-12T15:01:40;3.80;;;2.10;;
67074;SDS011;53990;50.334;18.640;2023-04-12T15:04:08;5.00;;;2.20;;
67074;SDS011;53990;50.334;18.640;2023-04-12T15:06:35;3.50;;;2.10;;
67074;SDS011;53990;50.334;18.640;2023-04-12T15:09:12;4.20;;;2.30;;
67074;SDS011;53990;50.334;18.640;2023-04-12T15:11:41;3.70;;;2.30;;
67074;SDS011;53990;50.334;18.640;2023-04-12T15:14:13;4.20;;;2.60;;
67074;SDS011;53990;50.334;18.640;2023-04-12T15:16:46;4.90;;;2.70;;